sensor_id;sensor_type;location;lat;lon;timestamp;P1;durP1;ratioP1;P2;durP2;ratioP2
3341;SDS011;1684;50.748;6.154;2022-12-18T00:00:05;14.40;;;8.02;;
3341;SDS011;1684;50.748;6.154;2022-12-18T00:02:33;19.83;;;10.82;;
3341;SDS011;1684;50.748;6.154;2022-12-18T00:05:02;19.50;;;9.93;;
3341;SDS011;1684;50.748;6.154;2022-12-18T00:07:30;16.65;;;9.80;;
3341;SDS011;1684;50.748;6.154;2022-12-18T00:10:00;17.83;;;9.85;;
3341;SDS011;1684;50.748;6.154;2022-12-18T00:12:28;17.90;;;10.80;;
3341;SDS011;1684;50.748;6.154;2022-12-18T00:14:56;16.33;;;9.73;;
3341;SDS011;1684;50.748;6.154;2022-12-18T00:17:24;16.65;;;10.85;;
3341;SDS011;1684;50.748;6.154;2022-12-18T00:19:53;13.57;;;9.70;;
3341;SDS011;1684;50.748;6.154;2022-12-18T00:22:21;15.87;;;8.47;;
3341;SDS011;1684;50.748;6.154;2022-12-18T00:24:49;14.10;;;9.05;;
3341;SDS011;1684;50.748;6.154;2022-12-18T00:27:19;14.88;;;9.52;;
3341;SDS011;1684;50.748;6.154;2022-12-18T00:29:47;12.45;;;8.60;;
3341;SDS011;1684;50.748;6.154;2022-12-18T00:32:16;16.57;;;8.77;;
3341;SDS011;1684;50.748;6.154;2022-12-18T00:34:44;20.35;;;9.18;;
3341;SDS011;1684;50.748;6.154;2022-12-18T00:37:12;16.08;;;8.88;;
3341;SDS011;1684;50.748;6.154;2022-12-18T00:39:47;15.02;;;8.73;;
3341;SDS011;1684;50.748;6.154;2022-12-18T00:42:16;13.23;;;8.77;;
3341;SDS011;1684;50.748;6.154;2022-12-18T00:45:04;14.48;;;8.50;;
3341;SDS011;1684;50.748;6.154;2022-12-18T00:47:38;11.40;;;8.40;;
3341;SDS011;1684;50.748;6.154;2022-12-18T00:50:07;13.68;;;8.65;;
3341;SDS011;1684;50.748;6.154;2022-12-18T00:52:35;16.10;;;8.27;;
3341;SDS011;1684;50.748;6.154;2022-12-18T00:55:09;12.05;;;8.35;;
3341;SDS011;1684;50.748;6.154;2022-12-18T00:57:37;11.80;;;7.90;;
3341;SDS011;1684;50.748;6.154;2022-12-18T01:00:08;19.05;;;9.65;;
3341;SDS011;1684;50.748;6.154;2022-12-18T01:02:37;12.27;;;8.30;;
3341;SDS011;1684;50.748;6.154;2022-12-18T01:05:05;14.23;;;9.07;;
3341;SDS011;1684;50.748;6.154;2022-12-18T01:07:34;15.07;;;8.13;;
3341;SDS011;1684;50.748;6.154;2022-12-18T01:10:02;15.30;;;8.88;;
3341;SDS011;1684;50.748;6.154;2022-12-18T01:12:30;15.07;;;7.60;;
3341;SDS011;1684;50.748;6.154;2022-12-18T01:14:59;11.23;;;6.97;;
3341;SDS011;1684;50.748;6.154;2022-12-18T01:17:28;13.75;;;7.88;;
3341;SDS011;1684;50.748;6.154;2022-12-18T01:19:57;14.32;;;7.00;;
3341;SDS011;1684;50.748;6.154;2022-12-18T01:22:25;14.35;;;6.50;;
3341;SDS011;1684;50.748;6.154;2022-12-18T01:24:53;10.07;;;6.32;;
3341;SDS011;1684;50.748;6.154;2022-12-18T01:27:21;11.70;;;7.30;;
3341;SDS011;1684;50.748;6.154;2022-12-18T01:29:50;13.30;;;6.13;;
3341;SDS011;1684;50.748;6.154;2022-12-18T01:32:18;15.57;;;8.35;;
3341;SDS011;1684;50.748;6.154;2022-12-18T01:34:48;13.38;;;6.07;;
3341;SDS011;1684;50.748;6.154;2022-12-18T01:37:16;11.40;;;6.70;;
3341;SDS011;1684;50.748;6.154;2022-12-18T01:39:44;10.07;;;5.88;;
3341;SDS011;1684;50.748;6.154;2022-12-18T01:42:13;9.07;;;5.15;;
3341;SDS011;1684;50.748;6.154;2022-12-18T01:47:32;9.20;;;5.47;;
3341;SDS011;1684;50.748;6.154;2022-12-18T01:50:03;10.70;;;6.13;;
3341;SDS011;1684;50.748;6.154;2022-12-18T01:52:32;14.90;;;5.63;;
3341;SDS011;1684;50.748;6.154;2022-12-18T01:55:01;8.00;;;5.30;;
3341;SDS011;1684;50.748;6.154;2022-12-18T01:57:30;10.70;;;5.47;;
3341;SDS011;1684;50.748;6.154;2022-12-18T01:59:59;9.95;;;6.20;;
3341;SDS011;1684;50.748;6.154;2022-12-18T02:02:29;12.30;;;5.82;;
3341;SDS011;1684;50.748;6.154;2022-12-18T02:04:58;11.40;;;5.60;;
3341;SDS011;1684;50.748;6.154;2022-12-18T02:07:31;8.52;;;4.50;;
3341;SDS011;1684;50.748;6.154;2022-12-18T02:10:03;7.97;;;4.82;;
3341;SDS011;1684;50.748;6.154;2022-12-18T02:12:35;6.45;;;3.65;;
3341;SDS011;1684;50.748;6.154;2022-12-18T02:15:10;6.25;;;3.25;;
3341;SDS011;1684;50.748;6.154;2022-12-18T02:17:42;7.35;;;3.38;;
3341;SDS011;1684;50.748;6.154;2022-12-18T02:20:12;6.40;;;4.03;;
3341;SDS011;1684;50.748;6.154;2022-12-18T02:22:46;6.20;;;3.25;;
3341;SDS011;1684;50.748;6.154;2022-12-18T02:25:21;5.65;;;3.10;;
3341;SDS011;1684;50.748;6.154;2022-12-18T02:27:53;5.65;;;3.35;;
3341;SDS011;1684;50.748;6.154;2022-12-18T02:30:23;6.70;;;3.58;;
3341;SDS011;1684;50.748;6.154;2022-12-18T02:32:52;5.55;;;3.30;;
3341;SDS011;1684;50.748;6.154;2022-12-18T02:35:22;6.05;;;2.70;;
3341;SDS011;1684;50.748;6.154;2022-12-18T02:37:54;7.40;;;3.20;;
3341;SDS011;1684;50.748;6.154;2022-12-18T02:40:23;10.10;;;5.30;;
3341;SDS011;1684;50.748;6.154;2022-12-18T02:42:53;8.48;;;4.28;;
3341;SDS011;1684;50.748;6.154;2022-12-18T02:45:22;10.07;;;4.07;;
3341;SDS011;1684;50.748;6.154;2022-12-18T02:47:50;3.97;;;2.55;;
3341;SDS011;1684;50.748;6.154;2022-12-18T02:50:19;4.47;;;2.15;;
3341;SDS011;1684;50.748;6.154;2022-12-18T02:52:53;4.18;;;2.35;;
3341;SDS011;1684;50.748;6.154;2022-12-18T02:55:28;5.57;;;2.33;;
3341;SDS011;1684;50.748;6.154;2022-12-18T02:58:02;5.45;;;1.95;;
3341;SDS011;1684;50.748;6.154;2022-12-18T03:00:33;5.70;;;2.78;;
3341;SDS011;1684;50.748;6.154;2022-12-18T03:03:05;4.15;;;2.35;;
3341;SDS011;1684;50.748;6.154;2022-12-18T03:05:36;3.58;;;2.40;;
3341;SDS011;1684;50.748;6.154;2022-12-18T03:08:06;5.30;;;2.50;;
3341;SDS011;1684;50.748;6.154;2022-12-18T03:10:37;3.45;;;1.95;;
3341;SDS011;1684;50.748;6.154;2022-12-18T03:13:08;4.35;;;2.13;;
3341;SDS011;1684;50.748;6.154;2022-12-18T03:15:39;3.30;;;1.88;;
3341;SDS011;1684;50.748;6.154;2022-12-18T03:18:13;5.18;;;1.65;;
3341;SDS011;1684;50.748;6.154;2022-12-18T03:20:43;2.65;;;1.67;;
3341;SDS011;1684;50.748;6.154;2022-12-18T03:23:13;3.20;;;1.40;;
3341;SDS011;1684;50.748;6.154;2022-12-18T03:25:44;3.72;;;1.70;;
3341;SDS011;1684;50.748;6.154;2022-12-18T03:28:14;4.03;;;1.67;;
3341;SDS011;1684;50.748;6.154;2022-12-18T03:30:43;3.53;;;1.70;;
3341;SDS011;1684;50.748;6.154;2022-12-18T03:33:14;5.15;;;1.73;;
3341;SDS011;1684;50.748;6.154;2022-12-18T03:35:45;2.80;;;1.33;;
3341;SDS011;1684;50.748;6.154;2022-12-18T03:38:14;3.72;;;1.20;;
3341;SDS011;1684;50.748;6.154;2022-12-18T03:40:50;3.33;;;1.50;;
3341;SDS011;1684;50.748;6.154;2022-12-18T03:43:24;4.03;;;1.85;;
3341;SDS011;1684;50.748;6.154;2022-12-18T03:46:02;5.10;;;1.83;;
3341;SDS011;1684;50.748;6.154;2022-12-18T03:48:34;2.53;;;1.25;;
3341;SDS011;1684;50.748;6.154;2022-12-18T03:51:05;3.10;;;1.60;;
3341;SDS011;1684;50.748;6.154;2022-12-18T03:53:36;4.53;;;1.70;;
3341;SDS011;1684;50.748;6.154;2022-12-18T03:56:08;2.95;;;1.50;;
3341;SDS011;1684;50.748;6.154;2022-12-18T03:58:38;5.00;;;2.03;;
3341;SDS011;1684;50.748;6.154;2022-12-18T04:01:08;3.35;;;1.60;;
3341;SDS011;1684;50.748;6.154;2022-12-18T04:03:38;4.63;;;1.83;;
3341;SDS011;1684;50.748;6.154;2022-12-18T04:06:08;3.60;;;1.50;;
3341;SDS011;1684;50.748;6.154;2022-12-18T04:08:37;4.28;;;1.92;;
3341;SDS011;1684;50.748;6.154;2022-12-18T04:11:06;4.90;;;1.98;;
3341;SDS011;1684;50.748;6.154;2022-12-18T04:13:35;3.42;;;1.40;;
3341;SDS011;1684;50.748;6.154;2022-12-18T04:16:06;2.53;;;1.63;;
3341;SDS011;1684;50.748;6.154;2022-12-18T04:18:35;5.60;;;2.00;;
3341;SDS011;1684;50.748;6.154;2022-12-18T04:21:03;2.53;;;1.30;;
3341;SDS011;1684;50.748;6.154;2022-12-18T04:23:32;6.25;;;2.05;;
3341;SDS011;1684;50.748;6.154;2022-12-18T04:26:00;3.72;;;1.60;;
3341;SDS011;1684;50.748;6.154;2022-12-18T04:28:28;4.88;;;2.38;;
3341;SDS011;1684;50.748;6.154;2022-12-18T04:30:56;5.15;;;2.05;;
3341;SDS011;1684;50.748;6.154;2022-12-18T04:33:26;3.60;;;1.85;;
3341;SDS011;1684;50.748;6.154;2022-12-18T04:35:54;4.03;;;2.00;;
3341;SDS011;1684;50.748;6.154;2022-12-18T04:38:23;3.13;;;1.60;;
3341;SDS011;1684;50.748;6.154;2022-12-18T04:40:51;3.97;;;1.73;;
3341;SDS011;1684;50.748;6.154;2022-12-18T04:43:19;2.28;;;1.25;;
3341;SDS011;1684;50.748;6.154;2022-12-18T04:45:47;2.95;;;1.50;;
3341;SDS011;1684;50.748;6.154;2022-12-18T04:48:15;4.32;;;1.90;;
3341;SDS011;1684;50.748;6.154;2022-12-18T04:50:45;3.13;;;1.55;;
3341;SDS011;1684;50.748;6.154;2022-12-18T04:53:14;7.25;;;2.30;;
3341;SDS011;1684;50.748;6.154;2022-12-18T04:55:42;2.08;;;1.75;;
3341;SDS011;1684;50.748;6.154;2022-12-18T04:58:10;3.50;;;1.55;;
3341;SDS011;1684;50.748;6.154;2022-12-18T05:00:39;3.97;;;2.38;;
3341;SDS011;1684;50.748;6.154;2022-12-18T05:03:07;6.13;;;2.30;;
3341;SDS011;1684;50.748;6.154;2022-12-18T05:05:35;4.43;;;2.78;;
3341;SDS011;1684;50.748;6.154;2022-12-18T05:08:05;6.97;;;3.10;;
3341;SDS011;1684;50.748;6.154;2022-12-18T05:10:33;5.65;;;2.75;;
3341;SDS011;1684;50.748;6.154;2022-12-18T05:13:03;6.68;;;3.53;;
3341;SDS011;1684;50.748;6.154;2022-12-18T05:15:32;3.08;;;2.05;;
3341;SDS011;1684;50.748;6.154;2022-12-18T05:18:01;11.27;;;3.55;;
3341;SDS011;1684;50.748;6.154;2022-12-18T05:20:29;4.13;;;1.90;;
3341;SDS011;1684;50.748;6.154;2022-12-18T05:22:58;6.68;;;2.30;;
3341;SDS011;1684;50.748;6.154;2022-12-18T05:25:27;4.32;;;2.47;;
3341;SDS011;1684;50.748;6.154;2022-12-18T05:27:56;9.15;;;3.45;;
3341;SDS011;1684;50.748;6.154;2022-12-18T05:30:25;9.23;;;4.07;;
3341;SDS011;1684;50.748;6.154;2022-12-18T05:32:53;9.98;;;5.30;;
3341;SDS011;1684;50.748;6.154;2022-12-18T05:35:21;6.90;;;4.07;;
3341;SDS011;1684;50.748;6.154;2022-12-18T05:37:50;6.45;;;3.58;;
3341;SDS011;1684;50.748;6.154;2022-12-18T05:40:18;4.82;;;3.55;;
3341;SDS011;1684;50.748;6.154;2022-12-18T05:42:48;8.88;;;5.43;;
3341;SDS011;1684;50.748;6.154;2022-12-18T05:45:16;9.30;;;4.70;;
3341;SDS011;1684;50.748;6.154;2022-12-18T05:47:44;14.30;;;6.22;;
3341;SDS011;1684;50.748;6.154;2022-12-18T05:50:12;13.70;;;6.18;;
3341;SDS011;1684;50.748;6.154;2022-12-18T05:52:41;14.60;;;6.47;;
3341;SDS011;1684;50.748;6.154;2022-12-18T05:55:09;11.10;;;5.90;;
3341;SDS011;1684;50.748;6.154;2022-12-18T05:57:37;12.02;;;6.50;;
3341;SDS011;1684;50.748;6.154;2022-12-18T06:00:08;10.00;;;5.03;;
3341;SDS011;1684;50.748;6.154;2022-12-18T06:02:36;7.07;;;3.10;;
3341;SDS011;1684;50.748;6.154;2022-12-18T06:05:05;9.30;;;4.57;;
3341;SDS011;1684;50.748;6.154;2022-12-18T06:07:33;7.60;;;3.25;;
3341;SDS011;1684;50.748;6.154;2022-12-18T06:10:01;14.75;;;5.35;;
3341;SDS011;1684;50.748;6.154;2022-12-18T06:12:30;13.48;;;5.20;;
3341;SDS011;1684;50.748;6.154;2022-12-18T06:14:59;6.05;;;3.83;;
3341;SDS011;1684;50.748;6.154;2022-12-18T06:17:29;14.18;;;5.90;;
3341;SDS011;1684;50.748;6.154;2022-12-18T06:19:57;12.98;;;5.18;;
3341;SDS011;1684;50.748;6.154;2022-12-18T06:22:27;7.80;;;3.35;;
3341;SDS011;1684;50.748;6.154;2022-12-18T06:24:55;8.15;;;4.50;;
3341;SDS011;1684;50.748;6.154;2022-12-18T06:27:23;7.07;;;3.13;;
3341;SDS011;1684;50.748;6.154;2022-12-18T06:29:52;11.05;;;5.13;;
3341;SDS011;1684;50.748;6.154;2022-12-18T06:32:20;7.97;;;5.40;;
3341;SDS011;1684;50.748;6.154;2022-12-18T06:34:51;9.80;;;4.75;;
3341;SDS011;1684;50.748;6.154;2022-12-18T06:37:19;8.75;;;3.80;;
3341;SDS011;1684;50.748;6.154;2022-12-18T06:39:50;10.10;;;5.15;;
3341;SDS011;1684;50.748;6.154;2022-12-18T06:42:18;7.38;;;3.63;;
3341;SDS011;1684;50.748;6.154;2022-12-18T06:44:47;9.30;;;4.05;;
3341;SDS011;1684;50.748;6.154;2022-12-18T06:47:15;11.57;;;4.07;;
3341;SDS011;1684;50.748;6.154;2022-12-18T06:49:43;2.45;;;1.38;;
3341;SDS011;1684;50.748;6.154;2022-12-18T06:52:15;7.85;;;3.90;;
3341;SDS011;1684;50.748;6.154;2022-12-18T06:54:44;7.07;;;4.25;;
3341;SDS011;1684;50.748;6.154;2022-12-18T06:57:12;5.13;;;3.50;;
3341;SDS011;1684;50.748;6.154;2022-12-18T06:59:40;9.38;;;3.05;;
3341;SDS011;1684;50.748;6.154;2022-12-18T07:02:10;4.57;;;2.67;;
3341;SDS011;1684;50.748;6.154;2022-12-18T07:04:38;4.05;;;2.30;;
3341;SDS011;1684;50.748;6.154;2022-12-18T07:07:07;8.68;;;3.13;;
3341;SDS011;1684;50.748;6.154;2022-12-18T07:09:36;6.03;;;2.17;;
3341;SDS011;1684;50.748;6.154;2022-12-18T07:12:04;12.18;;;3.35;;
3341;SDS011;1684;50.748;6.154;2022-12-18T07:14:34;7.32;;;3.60;;
3341;SDS011;1684;50.748;6.154;2022-12-18T07:17:02;10.05;;;3.55;;
3341;SDS011;1684;50.748;6.154;2022-12-18T07:19:31;9.88;;;3.40;;
3341;SDS011;1684;50.748;6.154;2022-12-18T07:22:00;8.35;;;5.15;;
3341;SDS011;1684;50.748;6.154;2022-12-18T07:24:32;6.22;;;3.85;;
3341;SDS011;1684;50.748;6.154;2022-12-18T07:27:02;8.77;;;4.10;;
3341;SDS011;1684;50.748;6.154;2022-12-18T07:29:33;5.35;;;3.85;;
3341;SDS011;1684;50.748;6.154;2022-12-18T07:32:01;7.25;;;3.33;;
3341;SDS011;1684;50.748;6.154;2022-12-18T07:34:29;7.10;;;3.88;;
3341;SDS011;1684;50.748;6.154;2022-12-18T07:36:58;10.32;;;5.65;;
3341;SDS011;1684;50.748;6.154;2022-12-18T07:39:26;8.23;;;3.75;;
3341;SDS011;1684;50.748;6.154;2022-12-18T07:41:54;6.72;;;2.63;;
3341;SDS011;1684;50.748;6.154;2022-12-18T07:44:42;7.88;;;4.40;;
3341;SDS011;1684;50.748;6.154;2022-12-18T07:47:10;5.50;;;3.88;;
3341;SDS011;1684;50.748;6.154;2022-12-18T07:49:38;9.57;;;5.32;;
3341;SDS011;1684;50.748;6.154;2022-12-18T07:52:06;7.78;;;3.45;;
3341;SDS011;1684;50.748;6.154;2022-12-18T07:54:35;10.95;;;4.80;;
3341;SDS011;1684;50.748;6.154;2022-12-18T07:57:03;8.20;;;4.50;;
3341;SDS011;1684;50.748;6.154;2022-12-18T07:59:53;9.90;;;4.55;;
3341;SDS011;1684;50.748;6.154;2022-12-18T08:02:22;14.93;;;4.18;;
3341;SDS011;1684;50.748;6.154;2022-12-18T08:04:50;7.38;;;3.38;;
3341;SDS011;1684;50.748;6.154;2022-12-18T08:07:19;6.40;;;4.15;;
3341;SDS011;1684;50.748;6.154;2022-12-18T08:09:47;6.88;;;4.15;;
3341;SDS011;1684;50.748;6.154;2022-12-18T08:12:15;7.25;;;4.40;;
3341;SDS011;1684;50.748;6.154;2022-12-18T08:14:44;10.07;;;5.32;;
3341;SDS011;1684;50.748;6.154;2022-12-18T08:17:13;8.52;;;4.07;;
3341;SDS011;1684;50.748;6.154;2022-12-18T08:19:41;13.02;;;5.78;;
3341;SDS011;1684;50.748;6.154;2022-12-18T08:22:10;9.80;;;4.72;;
3341;SDS011;1684;50.748;6.154;2022-12-18T08:24:38;11.98;;;6.18;;
3341;SDS011;1684;50.748;6.154;2022-12-18T08:27:06;7.05;;;1.73;;
3341;SDS011;1684;50.748;6.154;2022-12-18T08:29:55;2.95;;;2.00;;
3341;SDS011;1684;50.748;6.154;2022-12-18T08:32:25;9.95;;;6.28;;
3341;SDS011;1684;50.748;6.154;2022-12-18T08:34:53;10.65;;;6.95;;
3341;SDS011;1684;50.748;6.154;2022-12-18T08:37:21;10.23;;;5.85;;
3341;SDS011;1684;50.748;6.154;2022-12-18T08:39:50;7.13;;;4.32;;
3341;SDS011;1684;50.748;6.154;2022-12-18T08:42:18;5.57;;;2.50;;
3341;SDS011;1684;50.748;6.154;2022-12-18T08:45:04;11.45;;;5.68;;
3341;SDS011;1684;50.748;6.154;2022-12-18T08:47:34;10.05;;;4.85;;
3341;SDS011;1684;50.748;6.154;2022-12-18T08:50:03;8.27;;;4.57;;
3341;SDS011;1684;50.748;6.154;2022-12-18T08:52:32;5.38;;;3.08;;
3341;SDS011;1684;50.748;6.154;2022-12-18T08:55:00;8.13;;;5.00;;
3341;SDS011;1684;50.748;6.154;2022-12-18T08:57:28;15.93;;;7.75;;
3341;SDS011;1684;50.748;6.154;2022-12-18T09:00:00;19.25;;;7.70;;
3341;SDS011;1684;50.748;6.154;2022-12-18T09:02:28;5.07;;;3.38;;
3341;SDS011;1684;50.748;6.154;2022-12-18T09:04:58;10.80;;;6.30;;
3341;SDS011;1684;50.748;6.154;2022-12-18T09:07:27;5.65;;;3.78;;
3341;SDS011;1684;50.748;6.154;2022-12-18T09:09:55;5.10;;;2.72;;
3341;SDS011;1684;50.748;6.154;2022-12-18T09:12:23;7.32;;;3.50;;
3341;SDS011;1684;50.748;6.154;2022-12-18T09:14:51;11.60;;;6.60;;
3341;SDS011;1684;50.748;6.154;2022-12-18T09:17:20;9.07;;;5.18;;
3341;SDS011;1684;50.748;6.154;2022-12-18T09:19:48;13.57;;;6.63;;
3341;SDS011;1684;50.748;6.154;2022-12-18T09:22:18;10.30;;;5.95;;
3341;SDS011;1684;50.748;6.154;2022-12-18T09:24:46;11.45;;;4.97;;
3341;SDS011;1684;50.748;6.154;2022-12-18T09:27:14;12.18;;;5.20;;
3341;SDS011;1684;50.748;6.154;2022-12-18T09:29:42;8.02;;;3.72;;
3341;SDS011;1684;50.748;6.154;2022-12-18T09:32:10;8.82;;;3.60;;
3341;SDS011;1684;50.748;6.154;2022-12-18T09:34:47;9.75;;;4.30;;
3341;SDS011;1684;50.748;6.154;2022-12-18T09:37:15;7.32;;;4.18;;
3341;SDS011;1684;50.748;6.154;2022-12-18T09:39:45;10.32;;;4.55;;
3341;SDS011;1684;50.748;6.154;2022-12-18T09:42:14;9.05;;;3.88;;
3341;SDS011;1684;50.748;6.154;2022-12-18T09:44:47;15.27;;;5.95;;
3341;SDS011;1684;50.748;6.154;2022-12-18T09:47:17;3.90;;;2.60;;
3341;SDS011;1684;50.748;6.154;2022-12-18T09:49:47;13.10;;;5.85;;
3341;SDS011;1684;50.748;6.154;2022-12-18T09:52:17;17.40;;;8.98;;
3341;SDS011;1684;50.748;6.154;2022-12-18T09:54:49;17.48;;;9.07;;
3341;SDS011;1684;50.748;6.154;2022-12-18T09:57:20;8.55;;;4.55;;
3341;SDS011;1684;50.748;6.154;2022-12-18T09:59:50;9.05;;;5.05;;
3341;SDS011;1684;50.748;6.154;2022-12-18T10:02:20;18.90;;;9.77;;
3341;SDS011;1684;50.748;6.154;2022-12-18T10:04:53;13.68;;;6.47;;
3341;SDS011;1684;50.748;6.154;2022-12-18T10:07:24;11.35;;;4.47;;
3341;SDS011;1684;50.748;6.154;2022-12-18T10:09:59;10.80;;;4.40;;
3341;SDS011;1684;50.748;6.154;2022-12-18T10:12:32;7.82;;;4.90;;
3341;SDS011;1684;50.748;6.154;2022-12-18T10:15:04;7.88;;;4.30;;
3341;SDS011;1684;50.748;6.154;2022-12-18T10:17:38;7.32;;;3.88;;
3341;SDS011;1684;50.748;6.154;2022-12-18T10:20:10;9.18;;;4.47;;
3341;SDS011;1684;50.748;6.154;2022-12-18T10:22:43;8.20;;;3.20;;
3341;SDS011;1684;50.748;6.154;2022-12-18T10:25:19;13.23;;;5.05;;
3341;SDS011;1684;50.748;6.154;2022-12-18T10:27:48;12.57;;;6.32;;
3341;SDS011;1684;50.748;6.154;2022-12-18T10:30:20;15.02;;;6.28;;
3341;SDS011;1684;50.748;6.154;2022-12-18T10:32:49;16.27;;;7.60;;
3341;SDS011;1684;50.748;6.154;2022-12-18T10:35:19;15.27;;;7.70;;
3341;SDS011;1684;50.748;6.154;2022-12-18T10:38:02;6.85;;;4.80;;
3341;SDS011;1684;50.748;6.154;2022-12-18T10:40:33;11.75;;;5.63;;
3341;SDS011;1684;50.748;6.154;2022-12-18T10:43:15;14.68;;;6.65;;
3341;SDS011;1684;50.748;6.154;2022-12-18T10:45:43;16.60;;;7.77;;
3341;SDS011;1684;50.748;6.154;2022-12-18T10:48:25;13.70;;;9.40;;
3341;SDS011;1684;50.748;6.154;2022-12-18T10:50:54;19.20;;;10.68;;
3341;SDS011;1684;50.748;6.154;2022-12-18T10:53:39;25.23;;;12.98;;
3341;SDS011;1684;50.748;6.154;2022-12-18T10:56:10;21.63;;;11.60;;
3341;SDS011;1684;50.748;6.154;2022-12-18T10:58:38;20.23;;;9.50;;
3341;SDS011;1684;50.748;6.154;2022-12-18T11:01:09;22.03;;;9.77;;
3341;SDS011;1684;50.748;6.154;2022-12-18T11:03:39;17.83;;;9.03;;
3341;SDS011;1684;50.748;6.154;2022-12-18T11:06:09;21.20;;;10.43;;
3341;SDS011;1684;50.748;6.154;2022-12-18T11:08:37;7.87;;;4.43;;
3341;SDS011;1684;50.748;6.154;2022-12-18T11:11:07;12.83;;;4.10;;
3341;SDS011;1684;50.748;6.154;2022-12-18T11:13:39;7.63;;;3.83;;
3341;SDS011;1684;50.748;6.154;2022-12-18T11:16:17;11.67;;;3.73;;
3341;SDS011;1684;50.748;6.154;2022-12-18T11:18:45;6.60;;;3.83;;
3341;SDS011;1684;50.748;6.154;2022-12-18T11:21:14;6.63;;;3.77;;
3341;SDS011;1684;50.748;6.154;2022-12-18T11:23:45;15.57;;;6.73;;
3341;SDS011;1684;50.748;6.154;2022-12-18T11:26:14;17.70;;;9.30;;
3341;SDS011;1684;50.748;6.154;2022-12-18T11:28:45;4.80;;;2.47;;
3341;SDS011;1684;50.748;6.154;2022-12-18T11:31:18;18.63;;;10.77;;
3341;SDS011;1684;50.748;6.154;2022-12-18T11:33:50;21.13;;;11.47;;
3341;SDS011;1684;50.748;6.154;2022-12-18T11:36:41;20.67;;;10.67;;
3341;SDS011;1684;50.748;6.154;2022-12-18T11:39:12;17.10;;;7.93;;
3341;SDS011;1684;50.748;6.154;2022-12-18T11:41:43;28.70;;;12.30;;
3341;SDS011;1684;50.748;6.154;2022-12-18T11:44:35;18.23;;;9.60;;
3341;SDS011;1684;50.748;6.154;2022-12-18T11:47:07;25.53;;;13.50;;
3341;SDS011;1684;50.748;6.154;2022-12-18T11:49:37;25.63;;;15.20;;
3341;SDS011;1684;50.748;6.154;2022-12-18T11:52:08;33.47;;;16.63;;
3341;SDS011;1684;50.748;6.154;2022-12-18T11:54:38;13.57;;;5.90;;
3341;SDS011;1684;50.748;6.154;2022-12-18T11:57:07;10.93;;;4.57;;
3341;SDS011;1684;50.748;6.154;2022-12-18T11:59:41;8.90;;;3.77;;
3341;SDS011;1684;50.748;6.154;2022-12-18T12:02:15;7.37;;;2.90;;
3341;SDS011;1684;50.748;6.154;2022-12-18T12:04:55;6.80;;;3.60;;
3341;SDS011;1684;50.748;6.154;2022-12-18T12:07:28;8.90;;;4.30;;
3341;SDS011;1684;50.748;6.154;2022-12-18T12:10:03;7.30;;;2.87;;
3341;SDS011;1684;50.748;6.154;2022-12-18T12:12:37;8.63;;;2.97;;
3341;SDS011;1684;50.748;6.154;2022-12-18T12:15:19;6.73;;;2.40;;
3341;SDS011;1684;50.748;6.154;2022-12-18T12:17:50;6.27;;;2.70;;
3341;SDS011;1684;50.748;6.154;2022-12-18T12:20:23;5.57;;;3.10;;
3341;SDS011;1684;50.748;6.154;2022-12-18T12:22:53;6.17;;;2.70;;
3341;SDS011;1684;50.748;6.154;2022-12-18T12:25:29;4.30;;;2.73;;
3341;SDS011;1684;50.748;6.154;2022-12-18T12:28:02;5.83;;;3.27;;
3341;SDS011;1684;50.748;6.154;2022-12-18T12:30:35;9.17;;;3.40;;
3341;SDS011;1684;50.748;6.154;2022-12-18T12:33:09;5.70;;;3.57;;
3341;SDS011;1684;50.748;6.154;2022-12-18T12:35:44;7.20;;;3.37;;
3341;SDS011;1684;50.748;6.154;2022-12-18T12:38:16;5.10;;;3.10;;
3341;SDS011;1684;50.748;6.154;2022-12-18T12:40:48;7.27;;;4.07;;
3341;SDS011;1684;50.748;6.154;2022-12-18T12:43:30;5.03;;;2.90;;
3341;SDS011;1684;50.748;6.154;2022-12-18T12:46:04;13.13;;;5.33;;
3341;SDS011;1684;50.748;6.154;2022-12-18T12:48:40;8.97;;;3.33;;
3341;SDS011;1684;50.748;6.154;2022-12-18T12:51:12;7.87;;;4.33;;
3341;SDS011;1684;50.748;6.154;2022-12-18T12:53:41;5.83;;;2.73;;
3341;SDS011;1684;50.748;6.154;2022-12-18T12:56:11;4.27;;;2.60;;
3341;SDS011;1684;50.748;6.154;2022-12-18T12:58:43;8.27;;;3.43;;
3341;SDS011;1684;50.748;6.154;2022-12-18T13:01:18;9.00;;;4.10;;
3341;SDS011;1684;50.748;6.154;2022-12-18T13:03:54;4.77;;;2.80;;
3341;SDS011;1684;50.748;6.154;2022-12-18T13:06:28;6.60;;;2.80;;
3341;SDS011;1684;50.748;6.154;2022-12-18T13:09:06;8.30;;;4.00;;
3341;SDS011;1684;50.748;6.154;2022-12-18T13:11:36;8.50;;;3.57;;
3341;SDS011;1684;50.748;6.154;2022-12-18T13:14:30;4.47;;;2.70;;
3341;SDS011;1684;50.748;6.154;2022-12-18T13:17:16;11.50;;;4.07;;
3341;SDS011;1684;50.748;6.154;2022-12-18T13:19:47;13.13;;;3.83;;
3341;SDS011;1684;50.748;6.154;2022-12-18T13:22:20;10.73;;;4.10;;
3341;SDS011;1684;50.748;6.154;2022-12-18T13:24:49;9.53;;;4.50;;
3341;SDS011;1684;50.748;6.154;2022-12-18T13:30:13;7.93;;;4.70;;
3341;SDS011;1684;50.748;6.154;2022-12-18T13:35:52;7.93;;;4.57;;
3341;SDS011;1684;50.748;6.154;2022-12-18T13:38:22;9.67;;;4.33;;
3341;SDS011;1684;50.748;6.154;2022-12-18T13:40:53;10.27;;;4.83;;
3341;SDS011;1684;50.748;6.154;2022-12-18T13:43:23;9.47;;;4.47;;
3341;SDS011;1684;50.748;6.154;2022-12-18T13:45:59;14.73;;;4.90;;
3341;SDS011;1684;50.748;6.154;2022-12-18T13:48:29;9.20;;;4.50;;
3341;SDS011;1684;50.748;6.154;2022-12-18T13:51:00;12.93;;;4.77;;
3341;SDS011;1684;50.748;6.154;2022-12-18T13:53:31;8.83;;;4.60;;
3341;SDS011;1684;50.748;6.154;2022-12-18T13:56:01;18.60;;;4.83;;
3341;SDS011;1684;50.748;6.154;2022-12-18T13:58:30;10.40;;;5.30;;
3341;SDS011;1684;50.748;6.154;2022-12-18T14:00:59;8.10;;;4.77;;
3341;SDS011;1684;50.748;6.154;2022-12-18T14:03:29;13.63;;;6.20;;
3341;SDS011;1684;50.748;6.154;2022-12-18T14:05:59;12.60;;;4.87;;
3341;SDS011;1684;50.748;6.154;2022-12-18T14:08:32;8.00;;;4.60;;
3341;SDS011;1684;50.748;6.154;2022-12-18T14:11:01;10.23;;;5.27;;
3341;SDS011;1684;50.748;6.154;2022-12-18T14:13:33;8.50;;;4.47;;
3341;SDS011;1684;50.748;6.154;2022-12-18T14:16:04;9.03;;;4.50;;
3341;SDS011;1684;50.748;6.154;2022-12-18T14:18:36;12.37;;;5.63;;
3341;SDS011;1684;50.748;6.154;2022-12-18T14:21:14;12.00;;;5.90;;
3341;SDS011;1684;50.748;6.154;2022-12-18T14:23:46;12.50;;;5.20;;
3341;SDS011;1684;50.748;6.154;2022-12-18T14:26:19;11.27;;;5.07;;
3341;SDS011;1684;50.748;6.154;2022-12-18T14:28:48;9.87;;;4.60;;
3341;SDS011;1684;50.748;6.154;2022-12-18T14:31:18;11.57;;;5.33;;
3341;SDS011;1684;50.748;6.154;2022-12-18T14:33:46;10.37;;;5.27;;
3341;SDS011;1684;50.748;6.154;2022-12-18T14:36:16;10.63;;;5.80;;
3341;SDS011;1684;50.748;6.154;2022-12-18T14:38:49;11.03;;;5.97;;
3341;SDS011;1684;50.748;6.154;2022-12-18T14:41:18;14.80;;;6.00;;
3341;SDS011;1684;50.748;6.154;2022-12-18T14:43:47;8.63;;;5.03;;
3341;SDS011;1684;50.748;6.154;2022-12-18T14:46:26;9.90;;;5.50;;
3341;SDS011;1684;50.748;6.154;2022-12-18T14:48:55;12.10;;;6.37;;
3341;SDS011;1684;50.748;6.154;2022-12-18T14:51:27;13.40;;;6.50;;
3341;SDS011;1684;50.748;6.154;2022-12-18T14:53:58;12.93;;;6.90;;
3341;SDS011;1684;50.748;6.154;2022-12-18T14:56:27;8.10;;;5.70;;
3341;SDS011;1684;50.748;6.154;2022-12-18T14:58:56;12.53;;;5.77;;
3341;SDS011;1684;50.748;6.154;2022-12-18T15:01:26;8.43;;;5.57;;
3341;SDS011;1684;50.748;6.154;2022-12-18T15:03:55;11.50;;;5.47;;
3341;SDS011;1684;50.748;6.154;2022-12-18T15:06:26;10.97;;;5.77;;
3341;SDS011;1684;50.748;6.154;2022-12-18T15:08:56;13.90;;;6.33;;
3341;SDS011;1684;50.748;6.154;2022-12-18T15:11:26;12.80;;;5.73;;
3341;SDS011;1684;50.748;6.154;2022-12-18T15:13:57;18.03;;;7.20;;
3341;SDS011;1684;50.748;6.154;2022-12-18T15:16:26;13.60;;;7.33;;
3341;SDS011;1684;50.748;6.154;2022-12-18T15:18:54;20.07;;;7.53;;
3341;SDS011;1684;50.748;6.154;2022-12-18T15:21:22;13.77;;;6.80;;
3341;SDS011;1684;50.748;6.154;2022-12-18T15:23:51;8.80;;;5.70;;
3341;SDS011;1684;50.748;6.154;2022-12-18T15:26:20;11.50;;;5.60;;
3341;SDS011;1684;50.748;6.154;2022-12-18T15:28:51;12.63;;;7.70;;
3341;SDS011;1684;50.748;6.154;2022-12-18T15:31:22;8.13;;;5.70;;
3341;SDS011;1684;50.748;6.154;2022-12-18T15:34:05;13.50;;;7.07;;
3341;SDS011;1684;50.748;6.154;2022-12-18T15:36:33;15.50;;;8.13;;